Time;durP1;ratioP1;P1;durP2;ratioP2;P2;SDS_P1;SDS_P2;PMS_P1;PMS_P2;Temp;Humidity;BMP_temperature;BMP_pressure;BME280_temperature;BME280_humidity;BME280_pressure;Samples;Min_cycle;Max_cycle;Signal;HPM_P1;HPM_P2
2022/07/07 00:00:43;;;;;;;9.82;6.22;;;;;;;19.09;76.21;101943.00;4963708;28;20052;-47
2022/07/07 00:03:11;;;;;;;11.05;6.28;;;;;;;19.07;77.05;101939.72;4921425;29;20491;-50
2022/07/07 00:05:40;;;;;;;11.77;7.32;;;;;;;19.05;77.28;101930.06;4920070;29;20554;-49
2022/07/07 00:08:08;;;;;;;10.77;5.53;;;;;;;19.04;77.14;101929.25;4937170;29;20066;-49
2022/07/07 00:10:35;;;;;;;14.20;7.03;;;;;;;19.03;77.55;101916.59;4937989;29;20483;-49
2022/07/07 00:13:03;;;;;;;10.27;6.53;;;;;;;19.01;77.68;101916.06;4922105;29;20102;-49
2022/07/07 00:15:31;;;;;;;9.57;5.88;;;;;;;19.01;77.21;101918.81;4936196;29;20091;-48
2022/07/07 00:17:59;;;;;;;11.55;7.63;;;;;;;18.98;77.97;101913.91;4936794;29;20094;-48
2022/07/07 00:20:27;;;;;;;11.50;7.10;;;;;;;18.97;78.18;101912.22;4937650;29;20036;-48
2022/07/07 00:22:54;;;;;;;8.88;5.70;;;;;;;18.94;78.04;101908.13;4952728;29;20052;-49
2022/07/07 00:25:22;;;;;;;10.55;6.28;;;;;;;18.95;78.13;101900.66;4936640;29;20481;-47
2022/07/07 00:27:50;;;;;;;14.95;7.45;;;;;;;18.95;78.08;101892.38;4936588;29;20047;-46
2022/07/07 00:30:17;;;;;;;11.48;6.75;;;;;;;18.95;77.62;101884.09;4937904;29;20054;-47
2022/07/07 00:32:45;;;;;;;9.85;5.13;;;;;;;18.95;77.67;101881.31;4941198;29;20050;-47
2022/07/07 00:35:12;;;;;;;14.32;7.60;;;;;;;18.94;78.15;101883.28;4960922;28;20407;-49
2022/07/07 00:37:40;;;;;;;13.38;7.30;;;;;;;18.92;78.41;101884.69;4934669;29;20048;-48
2022/07/07 00:40:09;;;;;;;15.60;7.65;;;;;;;18.90;78.88;101884.16;4936572;29;20063;-47
2022/07/07 00:42:36;;;;;;;13.30;7.63;;;;;;;18.88;79.07;101880.88;4939887;29;20051;-46
2022/07/07 00:45:06;;;;;;;14.25;7.97;;;;;;;18.87;79.42;101877.31;4919676;29;20043;-48
2022/07/07 00:47:34;;;;;;;11.13;6.72;;;;;;;18.86;79.27;101877.63;4936415;29;20075;-47
2022/07/07 00:50:02;;;;;;;11.95;7.30;;;;;;;18.85;79.38;101870.44;4920890;29;20050;-47
2022/07/07 00:52:29;;;;;;;10.70;6.10;;;;;;;18.86;79.22;101866.56;4924968;29;20035;-48
2022/07/07 00:54:59;;;;;;;11.93;6.97;;;;;;;18.83;79.50;101861.63;4934866;29;20054;-50
2022/07/07 00:57:27;;;;;;;12.52;7.45;;;;;;;18.84;79.39;101866.03;4950840;29;20495;-46
2022/07/07 00:59:59;;;;;;;14.13;7.70;;;;;;;18.80;79.97;101862.22;4919723;29;20095;-47
2022/07/07 01:02:31;;;;;;;9.63;5.75;;;;;;;18.83;79.05;101856.09;4936789;29;20048;-50
2022/07/07 01:05:00;;;;;;;10.57;7.07;;;;;;;18.81;79.81;101858.34;4946703;29;20111;-49
2022/07/07 01:07:28;;;;;;;11.57;6.82;;;;;;;18.79;80.02;101858.66;4919445;29;20131;-49
2022/07/07 01:09:57;;;;;;;14.10;7.38;;;;;;;18.77;80.29;101860.06;4953618;28;20063;-48
2022/07/07 01:12:25;;;;;;;11.30;6.68;;;;;;;18.77;80.44;101865.59;4927423;29;20131;-48
2022/07/07 01:14:53;;;;;;;8.38;5.07;;;;;;;18.78;80.33;101856.19;4935497;29;20384;-48
2022/07/07 01:17:21;;;;;;;11.70;6.82;;;;;;;18.77;80.03;101857.31;4936048;29;20056;-50
2022/07/07 01:19:48;;;;;;;13.95;6.55;;;;;;;18.76;80.40;101859.25;4935802;29;20111;-47
2022/07/07 01:22:17;;;;;;;13.40;7.30;;;;;;;18.72;80.98;101860.94;4937472;29;20039;-47
2022/07/07 01:24:44;;;;;;;13.55;6.10;;;;;;;18.74;80.51;101858.69;4947628;29;20060;-51
2022/07/07 01:27:20;;;;;;;11.18;6.97;;;;;;;18.69;81.34;101856.84;4935961;29;20044;-46
2022/07/07 01:29:50;;;;;;;9.77;5.65;;;;;;;18.66;81.50;101849.13;4905887;29;20050;-53
2022/07/07 01:32:18;;;;;;;7.85;4.25;;;;;;;18.70;81.07;101854.88;4948149;29;20042;-48
2022/07/07 01:34:48;;;;;;;9.95;5.55;;;;;;;18.71;80.33;101832.50;4927441;29;20044;-45
2022/07/07 01:37:16;;;;;;;13.52;6.90;;;;;;;18.74;82.10;101842.13;4923855;29;20063;-47
2022/07/07 01:39:44;;;;;;;15.77;6.50;;;;;;;18.71;82.96;101823.38;4935555;29;20062;-46
2022/07/07 01:42:13;;;;;;;11.05;6.35;;;;;;;18.67;83.16;101830.66;4936111;29;20050;-45
2022/07/07 01:44:42;;;;;;;12.52;5.53;;;;;;;18.63;83.31;101830.41;4935936;29;20499;-46
2022/07/07 01:47:11;;;;;;;12.35;5.82;;;;;;;18.64;83.40;101825.69;4935504;29;20046;-47
2022/07/07 01:49:39;;;;;;;10.75;5.80;;;;;;;18.64;83.52;101831.22;4926861;29;20045;-46
2022/07/07 01:52:07;;;;;;;14.65;5.88;;;;;;;18.63;83.57;101830.41;4941988;29;20040;-47
2022/07/07 01:54:36;;;;;;;13.85;6.15;;;;;;;18.64;83.51;101829.31;4935995;29;20040;-48
2022/07/07 01:57:04;;;;;;;9.40;5.85;;;;;;;18.64;83.85;101826.53;4919267;29;20044;-51
2022/07/07 01:59:32;;;;;;;14.52;5.97;;;;;;;18.63;83.72;101827.63;4936972;29;20492;-45
2022/07/07 02:02:00;;;;;;;11.88;5.72;;;;;;;18.63;83.97;101819.38;4939995;29;20118;-46
2022/07/07 02:04:28;;;;;;;9.07;5.45;;;;;;;18.63;84.14;101824.88;4940367;29;20028;-48
2022/07/07 02:06:56;;;;;;;11.25;5.30;;;;;;;18.65;84.05;101819.88;4937817;29;20134;-46
2022/07/07 02:09:23;;;;;;;10.93;5.57;;;;;;;18.64;84.31;101826.53;4944658;29;20044;-46
2022/07/07 02:11:51;;;;;;;9.73;4.40;;;;;;;18.69;83.09;101822.88;4958959;28;20522;-49
2022/07/07 02:14:18;;;;;;;10.35;5.32;;;;;;;18.68;83.69;101819.28;4943562;29;20071;-49
2022/07/07 02:16:46;;;;;;;7.20;3.90;;;;;;;18.70;83.23;101814.28;4939261;29;20047;-48
2022/07/07 02:19:14;;;;;;;12.68;4.55;;;;;;;18.70;84.00;101825.34;4939576;29;20044;-45
2022/07/07 02:21:42;;;;;;;9.98;4.95;;;;;;;18.66;84.71;101821.50;4941090;29;20048;-48
2022/07/07 02:24:09;;;;;;;11.15;4.60;;;;;;;18.65;84.79;101817.13;4945764;29;20134;-50
2022/07/07 02:26:37;;;;;;;8.95;4.45;;;;;;;18.68;84.62;101821.22;4939017;29;20071;-47
2022/07/07 02:29:05;;;;;;;8.05;4.53;;;;;;;18.64;85.08;101815.50;4939362;29;20043;-46
2022/07/07 02:31:33;;;;;;;10.75;5.07;;;;;;;18.63;85.48;101813.84;4959149;28;20046;-46
2022/07/07 02:34:00;;;;;;;8.27;4.13;;;;;;;18.61;85.35;101810.56;4951344;29;20046;-46
2022/07/07 02:36:28;;;;;;;15.90;4.53;;;;;;;18.63;85.37;101807.50;4925525;29;20043;-45
2022/07/07 02:38:56;;;;;;;10.05;4.55;;;;;;;18.63;85.48;101807.50;4922614;29;20050;-46
2022/07/07 02:41:23;;;;;;;8.75;4.25;;;;;;;18.63;85.95;101808.31;4938961;29;20051;-45
2022/07/07 02:43:51;;;;;;;12.40;4.68;;;;;;;18.62;86.29;101820.50;4938654;29;20494;-47
2022/07/07 02:46:19;;;;;;;8.02;3.92;;;;;;;18.59;86.36;101810.06;4942207;29;20046;-49
2022/07/07 02:48:47;;;;;;;8.38;4.20;;;;;;;18.59;86.66;101821.09;4941341;29;20051;-51
2022/07/07 02:51:14;;;;;;;9.90;4.10;;;;;;;18.57;86.75;101822.47;4945910;29;20039;-50
2022/07/07 02:53:42;;;;;;;9.00;3.90;;;;;;;18.53;86.96;101817.56;4929489;29;20050;-49
2022/07/07 02:56:10;;;;;;;9.30;4.07;;;;;;;18.50;87.38;101833.91;4939583;29;20044;-47
2022/07/07 02:58:38;;;;;;;6.57;3.30;;;;;;;18.45;86.37;101839.50;4938499;29;20054;-48
2022/07/07 03:01:06;;;;;;;9.80;3.10;;;;;;;18.41;84.60;101835.69;4938607;29;20069;-48
2022/07/07 03:03:33;;;;;;;5.30;2.47;;;;;;;18.33;83.22;101828.06;4938170;29;20035;-49
2022/07/07 03:06:01;;;;;;;5.53;2.53;;;;;;;18.25;83.13;101824.84;4937380;29;20040;-47
2022/07/07 03:08:29;;;;;;;6.47;2.55;;;;;;;18.25;83.32;101830.34;4937453;29;20043;-49
2022/07/07 03:10:59;;;;;;;6.30;2.40;;;;;;;18.26;82.91;101826.50;4939455;29;20043;-45
2022/07/07 03:13:27;;;;;;;9.02;2.63;;;;;;;18.26;83.14;101834.78;4927489;29;20063;-50
2022/07/07 03:15:55;;;;;;;5.13;2.17;;;;;;;18.26;82.67;101820.97;4940456;29;20044;-49
2022/07/07 03:18:23;;;;;;;8.63;2.80;;;;;;;18.24;82.95;101828.72;4937538;29;20078;-48
2022/07/07 03:20:54;;;;;;;5.63;2.40;;;;;;;18.17;83.11;101831.00;4939092;29;20350;-48
2022/07/07 03:23:22;;;;;;;10.55;2.28;;;;;;;18.12;85.55;101841.31;4949251;29;20039;-45
2022/07/07 03:25:50;;;;;;;7.22;2.58;;;;;;;18.01;87.18;101824.03;4927474;29;20043;-45
2022/07/07 03:28:17;;;;;;;8.30;2.85;;;;;;;17.95;88.25;101825.22;4937863;29;20047;-46
2022/07/07 03:30:45;;;;;;;4.95;2.42;;;;;;;17.94;88.76;101829.91;4945737;29;20402;-48
2022/07/07 03:33:13;;;;;;;3.75;2.03;;;;;;;17.95;89.39;101830.75;4939714;29;20044;-47
2022/07/07 03:35:41;;;;;;;4.10;2.40;;;;;;;17.93;89.32;101824.69;4938834;29;20067;-49
2022/07/07 03:38:09;;;;;;;5.45;2.25;;;;;;;17.91;89.47;101818.66;4937754;29;20554;-49
2022/07/07 03:40:37;;;;;;;3.28;2.22;;;;;;;17.88;89.49;101815.34;4939917;29;20067;-48
2022/07/07 03:43:05;;;;;;;5.05;2.53;;;;;;;17.90;89.32;101819.78;4925376;29;20090;-50
2022/07/07 03:45:32;;;;;;;6.45;2.40;;;;;;;17.91;89.35;101824.16;4937339;29;20570;-50
2022/07/07 03:48:00;;;;;;;4.28;2.30;;;;;;;17.90;89.76;101825.28;4937583;29;20094;-48
2022/07/07 03:50:28;;;;;;;4.72;2.15;;;;;;;17.92;89.84;101825.78;4926251;29;20401;-48
2022/07/07 03:52:55;;;;;;;3.92;2.13;;;;;;;17.89;90.19;101821.69;4936843;29;20127;-48
2022/07/07 03:55:23;;;;;;;5.57;2.20;;;;;;;17.87;90.55;101815.63;4921669;29;20047;-51
2022/07/07 03:57:59;;;;;;;4.22;2.35;;;;;;;17.86;90.62;101817.59;4937174;29;20131;-49
2022/07/07 04:00:26;;;;;;;6.63;2.75;;;;;;;17.82;90.70;101813.78;4921526;29;20491;-48
2022/07/07 04:02:54;;;;;;;8.00;2.75;;;;;;;17.81;91.30;101814.88;4936034;29;20126;-50
2022/07/07 04:05:22;;;;;;;5.18;2.55;;;;;;;17.83;91.48;101814.59;4937298;29;20154;-49
2022/07/07 04:07:49;;;;;;;8.18;2.65;;;;;;;17.82;91.71;101811.03;4935681;29;20045;-49
2022/07/07 04:10:17;;;;;;;4.00;2.25;;;;;;;17.80;92.56;101807.75;4919935;29;20151;-47
2022/07/07 04:12:45;;;;;;;4.90;2.30;;;;;;;17.77;92.94;101802.75;4918162;29;20047;-46
2022/07/07 04:15:12;;;;;;;5.30;2.30;;;;;;;17.76;92.94;101797.56;4939428;29;20062;-50
2022/07/07 04:17:40;;;;;;;6.07;2.22;;;;;;;17.76;93.15;101797.56;4944028;29;20130;-50
2022/07/07 04:20:08;;;;;;;4.43;2.47;;;;;;;17.76;93.26;101794.81;4938493;29;20039;-48
2022/07/07 04:22:36;;;;;;;8.88;2.50;;;;;;;17.76;93.21;101790.09;4950942;29;20055;-50
2022/07/07 04:25:04;;;;;;;3.40;2.10;;;;;;;17.80;93.08;101795.88;4941341;29;20055;-48
2022/07/07 04:27:32;;;;;;;4.82;2.42;;;;;;;17.83;93.18;101801.63;4936615;29;20066;-48
2022/07/07 04:29:59;;;;;;;4.70;2.10;;;;;;;17.79;93.79;101806.06;4943041;29;20040;-47
2022/07/07 04:32:27;;;;;;;4.95;2.58;;;;;;;17.68;95.52;101810.88;4936812;29;20103;-48
2022/07/07 04:34:55;;;;;;;7.18;2.47;;;;;;;17.61;97.05;101820.59;4937444;29;20036;-48
2022/07/07 04:37:22;;;;;;;6.22;2.33;;;;;;;17.54;97.89;101828.38;4903577;29;20048;-50
2022/07/07 04:39:50;;;;;;;3.15;1.85;;;;;;;17.43;98.61;101831.22;4937033;29;20475;-48
2022/07/07 04:42:18;;;;;;;5.97;2.10;;;;;;;17.44;99.26;101832.88;4936174;29;20046;-47
2022/07/07 04:44:46;;;;;;;12.35;2.53;;;;;;;17.45;99.61;101834.50;4937139;29;20072;-48
2022/07/07 04:47:13;;;;;;;3.22;2.20;;;;;;;17.45;100.00;101826.25;4934330;29;20075;-52
2022/07/07 04:49:41;;;;;;;3.72;1.98;;;;;;;17.45;100.00;101834.50;4935001;29;20039;-47
2022/07/07 04:52:09;;;;;;;5.65;2.10;;;;;;;17.44;100.00;101832.06;4936758;29;20570;-47
2022/07/07 04:54:36;;;;;;;3.58;1.98;;;;;;;17.43;100.00;101831.22;4920348;29;20058;-50
2022/07/07 04:57:04;;;;;;;6.93;2.72;;;;;;;17.43;100.00;101831.22;4936039;29;20562;-48
2022/07/07 04:59:34;;;;;;;5.18;2.53;;;;;;;17.45;100.00;101834.50;4936007;29;20486;-48
2022/07/07 05:02:02;;;;;;;8.55;2.40;;;;;;;17.41;100.00;101844.47;4919196;29;20050;-48
2022/07/07 05:04:29;;;;;;;7.30;2.30;;;;;;;17.36;99.76;101846.44;4935212;28;20102;-48
2022/07/07 05:06:57;;;;;;;7.18;2.25;;;;;;;17.29;100.00;101852.28;4935998;29;20039;-49
2022/07/07 05:09:24;;;;;;;6.38;2.13;;;;;;;17.24;100.00;101864.19;4950494;29;20407;-49
2022/07/07 05:11:52;;;;;;;6.32;2.20;;;;;;;17.27;100.00;101862.78;4918962;29;20095;-50
2022/07/07 05:14:20;;;;;;;6.18;2.45;;;;;;;17.25;100.00;101876.03;4918452;29;20056;-51
2022/07/07 05:16:47;;;;;;;6.10;2.17;;;;;;;17.21;100.00;101872.19;4937761;29;20487;-50
2022/07/07 05:19:16;;;;;;;8.95;2.42;;;;;;;17.18;100.00;101878.28;4935368;29;20071;-49
2022/07/07 05:21:43;;;;;;;7.82;2.25;;;;;;;17.16;100.00;101880.50;4929887;29;20051;-47
2022/07/07 05:24:11;;;;;;;8.02;2.53;;;;;;;17.15;100.00;101873.31;4943058;29;20480;-49
2022/07/07 05:26:39;;;;;;;7.68;2.50;;;;;;;17.13;100.00;101881.06;4919106;29;20071;-48
2022/07/07 05:29:07;;;;;;;9.48;2.55;;;;;;;17.21;100.00;101873.00;4936117;29;20098;-50
2022/07/07 05:31:34;;;;;;;7.47;2.85;;;;;;;17.18;100.00;101870.81;4935710;29;20043;-50
2022/07/07 05:34:02;;;;;;;10.98;3.08;;;;;;;17.10;100.00;101876.13;4935488;29;20174;-49
2022/07/07 05:36:30;;;;;;;9.68;2.78;;;;;;;17.16;100.00;101874.97;4922722;29;20043;-49
2022/07/07 05:38:58;;;;;;;12.70;2.97;;;;;;;17.20;100.00;101876.06;4941511;29;20043;-48
2022/07/07 05:41:27;;;;;;;11.38;3.40;;;;;;;17.21;100.00;101885.97;4919936;29;20036;-46
2022/07/07 05:43:54;;;;;;;8.18;2.83;;;;;;;17.28;100.00;101893.91;4891606;29;20062;-48
2022/07/07 05:46:22;;;;;;;7.82;2.50;;;;;;;17.27;100.00;101897.75;4945437;29;20048;-48
2022/07/07 05:48:50;;;;;;;8.52;2.50;;;;;;;17.22;100.00;101899.44;4598913;29;10000145;-50
2022/07/07 05:51:17;;;;;;;8.10;2.83;;;;;;;17.23;100.00;101903.84;4937460;29;20070;-51
2022/07/07 05:53:45;;;;;;;8.82;2.80;;;;;;;17.17;100.00;101910.50;4936311;29;20050;-52
2022/07/07 05:56:13;;;;;;;6.75;2.25;;;;;;;17.11;100.00;101916.31;4938895;29;20036;-49
2022/07/07 05:58:40;;;;;;;8.40;2.72;;;;;;;17.10;100.00;101925.69;4936809;29;20050;-49
2022/07/07 06:01:08;;;;;;;7.05;2.30;;;;;;;17.08;100.00;101923.22;4935683;29;20055;-51
2022/07/07 06:03:36;;;;;;;9.80;2.92;;;;;;;17.06;100.00;101919.94;4918784;29;20767;-48
2022/07/07 06:06:04;;;;;;;9.70;2.85;;;;;;;17.01;100.00;101937.31;4906854;29;20051;-49
2022/07/07 06:08:32;;;;;;;5.60;2.30;;;;;;;16.88;100.00;101946.19;4939288;29;20039;-48
2022/07/07 06:10:59;;;;;;;9.50;3.10;;;;;;;16.91;100.00;101933.78;4921994;29;20054;-48
2022/07/07 06:13:27;;;;;;;8.82;2.50;;;;;;;16.93;100.00;101942.56;4936213;28;20052;-49
2022/07/07 06:15:56;;;;;;;9.38;3.17;;;;;;;16.91;99.21;101951.13;4941677;29;20043;-50
2022/07/07 06:18:24;;;;;;;11.80;3.30;;;;;;;16.91;97.94;101945.63;4918558;29;20035;-48
2022/07/07 06:20:53;;;;;;;14.85;3.42;;;;;;;16.88;97.87;101945.34;4918721;29;20102;-48
2022/07/07 06:23:20;;;;;;;14.25;3.58;;;;;;;16.89;97.04;101958.84;4922545;29;20050;-49
2022/07/07 06:25:48;;;;;;;11.98;2.83;;;;;;;16.94;96.81;101967.06;4936447;29;20047;-46
2022/07/07 06:28:15;;;;;;;14.93;3.17;;;;;;;17.00;95.39;101967.88;4935339;29;20046;-49
2022/07/07 06:30:43;;;;;;;16.02;3.55;;;;;;;17.00;94.80;101959.59;4935826;29;20351;-49
2022/07/07 06:33:11;;;;;;;16.42;3.88;;;;;;;16.93;92.54;101975.59;4936547;29;20047;-48
2022/07/07 06:35:38;;;;;;;14.13;3.47;;;;;;;17.00;94.18;101976.97;4941598;29;20078;-50
2022/07/07 06:38:06;;;;;;;11.57;3.47;;;;;;;17.07;94.05;101973.06;4939254;29;20086;-48
2022/07/07 06:40:34;;;;;;;12.93;3.03;;;;;;;17.13;95.12;101975.53;4935378;29;20050;-48
2022/07/07 06:43:01;;;;;;;12.57;3.25;;;;;;;17.16;93.35;101985.16;4935269;29;20130;-43
2022/07/07 06:45:29;;;;;;;12.10;3.50;;;;;;;17.20;92.86;101986.22;4940205;29;20055;-45
2022/07/07 06:47:57;;;;;;;13.88;3.33;;;;;;;17.21;90.98;101982.34;4935164;29;20395;-46
2022/07/07 06:50:25;;;;;;;24.52;4.90;;;;;;;17.22;90.74;101995.00;4934878;29;20578;-47
2022/07/07 06:52:53;;;;;;;12.75;3.17;;;;;;;17.15;91.59;101995.34;4922685;29;20053;-48
2022/07/07 06:55:21;;;;;;;10.82;2.78;;;;;;;17.10;91.57;102002.78;4925204;29;20044;-45
2022/07/07 06:57:48;;;;;;;10.23;3.13;;;;;;;16.94;90.93;101991.84;4940915;29;20039;-44
2022/07/07 07:00:19;;;;;;;8.48;2.60;;;;;;;16.93;92.21;102006.75;4943072;29;20746;-44
2022/07/07 07:02:48;;;;;;;14.65;2.83;;;;;;;16.88;91.92;102006.75;4938052;29;20134;-45
2022/07/07 07:05:17;;;;;;;7.30;2.45;;;;;;;16.85;93.06;101998.22;4947457;29;20477;-45
2022/07/07 07:07:45;;;;;;;9.43;2.80;;;;;;;16.86;92.00;102013.63;4939778;29;20063;-49
2022/07/07 07:10:13;;;;;;;12.88;3.22;;;;;;;16.83;91.44;102012.28;4922391;29;20040;-48
2022/07/07 07:12:40;;;;;;;8.45;2.85;;;;;;;16.79;90.24;102019.47;4938083;29;20403;-47
2022/07/07 07:15:10;;;;;;;14.32;3.05;;;;;;;16.77;90.50;102016.13;4939215;29;20054;-47
2022/07/07 07:17:38;;;;;;;10.23;2.95;;;;;;;16.77;89.92;102016.13;4938283;29;20150;-46
2022/07/07 07:20:07;;;;;;;9.93;2.63;;;;;;;16.82;89.06;102025.22;4937962;29;20040;-49
2022/07/07 07:22:38;;;;;;;10.18;3.35;;;;;;;16.90;89.29;102021.06;4921497;29;20036;-49
2022/07/07 07:25:07;;;;;;;11.52;2.88;;;;;;;16.92;88.48;102026.28;4931312;29;20499;-47
2022/07/07 07:27:35;;;;;;;13.18;2.90;;;;;;;17.03;88.64;102022.41;4937654;29;20054;-48
2022/07/07 07:30:04;;;;;;;12.73;2.78;;;;;;;17.09;87.61;102039.72;4923769;29;20063;-49
2022/07/07 07:32:31;;;;;;;9.60;2.60;;;;;;;17.10;86.94;102036.69;4937918;29;20040;-46
2022/07/07 07:34:59;;;;;;;11.32;2.58;;;;;;;17.12;86.98;102050.16;4939525;29;20038;-48
2022/07/07 07:37:27;;;;;;;9.70;2.80;;;;;;;16.93;88.31;102064.56;4937916;29;20086;-48
2022/07/07 07:39:54;;;;;;;11.80;2.92;;;;;;;16.77;90.76;102080.25;4937372;29;20062;-46
2022/07/07 07:42:22;;;;;;;9.65;2.75;;;;;;;16.69;92.20;102071.72;4947095;29;20046;-49
2022/07/07 07:47:41;;;;;;;7.18;2.10;;;;;;;16.59;95.59;102067.88;4937933;29;20050;-47
2022/07/07 07:50:18;;;;;;;10.45;2.53;;;;;;;16.58;94.89;102063.50;4937441;29;20083;-47
2022/07/07 07:52:48;;;;;;;8.70;2.60;;;;;;;16.66;94.79;102058.53;4924999;29;20044;-50
2022/07/07 07:55:18;;;;;;;7.40;2.55;;;;;;;16.77;94.85;102062.91;4942939;29;20046;-47
2022/07/07 07:57:46;;;;;;;7.55;3.00;;;;;;;16.78;92.70;102062.66;4940859;29;20474;-48
2022/07/07 08:00:16;;;;;;;9.90;2.60;;;;;;;16.87;93.50;102062.91;4937430;29;20487;-46
2022/07/07 08:02:44;;;;;;;8.50;2.55;;;;;;;16.95;92.03;102067.84;4920246;29;20035;-49
2022/07/07 08:05:16;;;;;;;8.93;2.30;;;;;;;16.98;92.11;102049.91;4905155;29;20043;-47
2022/07/07 08:07:44;;;;;;;12.63;3.08;;;;;;;17.00;91.96;102048.56;4953042;28;20036;-47
2022/07/07 08:10:14;;;;;;;11.23;2.97;;;;;;;17.10;92.82;102055.09;4937937;29;20646;-50
2022/07/07 08:12:42;;;;;;;9.38;3.00;;;;;;;17.10;89.65;102066.13;4921649;29;20495;-50
2022/07/07 08:15:11;;;;;;;10.15;2.65;;;;;;;17.03;89.73;102069.22;4923639;29;20074;-48
2022/07/07 08:17:39;;;;;;;7.90;2.40;;;;;;;17.07;89.08;102069.44;4946294;29;20399;-49
2022/07/07 08:20:08;;;;;;;13.75;3.03;;;;;;;16.95;88.61;102073.34;4920135;29;20554;-48
2022/07/07 08:22:36;;;;;;;9.82;2.60;;;;;;;16.95;90.36;102100.88;4919590;29;20059;-47
2022/07/07 08:25:05;;;;;;;7.25;2.38;;;;;;;17.02;92.29;102095.06;4923671;29;20074;-50
2022/07/07 08:27:33;;;;;;;11.10;2.35;;;;;;;17.15;93.48;102093.66;4936885;29;20473;-47
2022/07/07 08:30:01;;;;;;;10.57;2.90;;;;;;;17.25;92.85;102083.44;4932780;29;20050;-48
2022/07/07 08:32:28;;;;;;;10.07;2.80;;;;;;;17.23;93.77;102084.81;4951656;29;20047;-52
2022/07/07 08:34:56;;;;;;;8.48;2.50;;;;;;;17.29;93.45;102080.91;4920227;29;20047;-52
2022/07/07 08:37:23;;;;;;;8.75;2.75;;;;;;;17.35;94.63;102077.03;4935899;29;20495;-49
2022/07/07 08:39:51;;;;;;;8.52;2.63;;;;;;;17.34;92.33;102086.44;4951311;29;20127;-52
2022/07/07 08:42:19;;;;;;;6.72;2.53;;;;;;;17.21;92.55;102087.84;4937508;29;20064;-49
2022/07/07 08:44:47;;;;;;;8.15;2.72;;;;;;;17.12;91.85;102088.72;4941837;29;20122;-49
2022/07/07 08:47:15;;;;;;;6.93;2.50;;;;;;;16.99;91.82;102101.97;4939064;29;20043;-53
2022/07/07 08:49:42;;;;;;;7.40;2.25;;;;;;;17.05;91.88;102100.00;4918816;29;20032;-51
2022/07/07 08:52:10;;;;;;;7.50;2.03;;;;;;;17.14;91.71;102081.00;4938249;29;20043;-52
2022/07/07 08:54:39;;;;;;;7.78;2.80;;;;;;;17.21;88.79;102103.56;4929389;29;20040;-51
2022/07/07 08:57:07;;;;;;;6.70;2.00;;;;;;;17.22;89.43;102116.19;4935764;29;20132;-51
2022/07/07 08:59:35;;;;;;;6.85;2.70;;;;;;;17.23;87.38;102106.84;4936620;29;20044;-50
2022/07/07 09:02:09;;;;;;;6.15;2.13;;;;;;;17.26;87.88;102098.00;4936658;29;20036;-47
2022/07/07 09:04:37;;;;;;;8.00;2.38;;;;;;;17.38;87.62;102109.53;4935266;29;20048;-51
2022/07/07 09:07:06;;;;;;;9.77;2.13;;;;;;;17.46;87.75;102108.97;4935938;29;20039;-49
2022/07/07 09:09:37;;;;;;;9.20;3.05;;;;;;;17.46;86.46;102119.97;4934707;29;20044;-50
2022/07/07 09:12:07;;;;;;;9.82;2.53;;;;;;;17.39;86.58;102121.38;4934603;29;20047;-48
2022/07/07 09:14:43;;;;;;;10.18;2.97;;;;;;;17.35;85.97;102129.38;4936817;29;20082;-47
2022/07/07 09:17:28;;;;;;;9.75;3.33;;;;;;;17.30;86.73;102134.91;4918238;29;20078;-51
2022/07/07 09:20:12;;;;;;;8.68;2.58;;;;;;;17.28;88.55;102136.31;4909591;29;20558;-48
2022/07/07 09:22:45;;;;;;;8.00;2.47;;;;;;;17.30;87.42;102140.44;4918871;29;20053;-48
2022/07/07 09:25:17;;;;;;;7.05;2.15;;;;;;;17.31;84.65;102131.03;4937813;29;20114;-49
2022/07/07 09:27:55;;;;;;;9.38;2.58;;;;;;;17.44;84.36;102133.22;4936404;29;20036;-50
2022/07/07 09:30:27;;;;;;;6.18;2.20;;;;;;;17.48;83.72;102130.69;4936295;29;20048;-48
2022/07/07 09:32:55;;;;;;;9.40;2.22;;;;;;;17.49;83.75;102137.06;4936670;29;20040;-51
2022/07/07 09:38:17;;;;;;;11.90;2.90;;;;;;;17.43;86.64;102145.31;4934840;29;20051;-51
2022/07/07 09:40:54;;;;;;;10.85;2.72;;;;;;;17.40;88.08;102151.41;4919538;29;20055;-50
2022/07/07 09:43:23;;;;;;;8.60;2.58;;;;;;;17.40;88.14;102158.84;4936530;29;20064;-50
2022/07/07 09:46:11;;;;;;;8.82;2.58;;;;;;;17.42;89.03;102168.47;4936026;29;20054;-46
2022/07/07 09:48:41;;;;;;;6.88;2.03;;;;;;;17.37;87.82;102171.25;4931880;29;20419;-54
2022/07/07 09:51:30;;;;;;;7.75;2.40;;;;;;;17.45;87.96;102164.34;4935883;29;20051;-51
2022/07/07 09:54:03;;;;;;;8.95;2.75;;;;;;;17.55;85.72;102163.47;4909553;29;20131;-49
2022/07/07 09:56:36;;;;;;;8.63;2.50;;;;;;;17.68;85.33;102165.63;4915707;29;20051;-53
2022/07/07 09:59:06;;;;;;;7.82;2.28;;;;;;;17.70;82.78;102168.09;4902207;29;20047;-53
2022/07/07 10:01:36;;;;;;;5.47;1.92;;;;;;;17.66;82.10;102170.59;4936579;29;20118;-51
2022/07/07 10:04:07;;;;;;;7.03;1.67;;;;;;;17.53;81.92;102190.47;4945950;29;20107;-51
2022/07/07 10:06:37;;;;;;;7.20;2.45;;;;;;;17.41;83.65;102202.66;4924649;29;20103;-48
2022/07/07 10:09:10;;;;;;;5.75;2.00;;;;;;;17.28;84.48;102192.22;4917581;29;20047;-48
2022/07/07 10:11:40;;;;;;;5.47;1.80;;;;;;;17.26;85.78;102205.44;4949666;29;20440;-48
2022/07/07 10:14:11;;;;;;;5.72;2.08;;;;;;;17.28;85.03;102196.91;4937049;29;20056;-48
2022/07/07 10:16:39;;;;;;;4.10;1.77;;;;;;;17.33;84.63;102200.47;4918687;29;20052;-49
2022/07/07 10:19:11;;;;;;;3.58;1.42;;;;;;;17.35;83.28;102203.78;4933565;29;20055;-47
2022/07/07 10:21:44;;;;;;;4.18;2.00;;;;;;;17.41;82.58;102212.84;4916748;29;20036;-48
2022/07/07 10:24:14;;;;;;;5.93;2.00;;;;;;;17.51;82.77;102206.47;4952055;28;20047;-48
2022/07/07 10:26:54;;;;;;;5.78;2.13;;;;;;;17.68;81.55;102213.31;4921263;29;20036;-49
2022/07/07 10:29:45;;;;;;;6.90;1.67;;;;;;;17.78;82.05;102209.69;4939317;29;20043;-47
2022/07/07 10:32:15;;;;;;;6.15;2.17;;;;;;;17.87;82.41;102216.28;4246660;29;9999920;-48
2022/07/07 10:34:51;;;;;;;5.60;1.67;;;;;;;17.83;81.92;102212.44;4943041;29;20043;-48
2022/07/07 10:37:20;;;;;;;7.82;2.05;;;;;;;17.80;82.52;102220.44;4943192;29;20514;-52
2022/07/07 10:39:50;;;;;;;7.18;1.90;;;;;;;17.73;84.03;102217.97;4952279;28;20078;-48
2022/07/07 10:42:18;;;;;;;5.03;1.98;;;;;;;17.71;83.95;102219.38;4902685;29;20058;-47
2022/07/07 10:44:50;;;;;;;6.68;2.08;;;;;;;17.65;84.77;102241.44;4936364;29;20047;-50
2022/07/07 10:47:17;;;;;;;5.47;1.83;;;;;;;17.56;86.13;102237.63;4935299;29;20047;-48
2022/07/07 10:49:51;;;;;;;5.57;1.58;;;;;;;17.54;87.29;102239.00;4935379;29;20043;-45
2022/07/07 10:52:21;;;;;;;5.53;2.10;;;;;;;17.57;88.38;102249.44;4935588;29;20051;-49
2022/07/07 10:54:49;;;;;;;5.60;1.80;;;;;;;17.51;88.22;102250.56;4920154;29;20048;-49
2022/07/07 10:57:18;;;;;;;5.00;2.13;;;;;;;17.52;89.08;102252.22;4935029;29;20044;-49
2022/07/07 10:59:59;;;;;;;6.43;2.22;;;;;;;17.54;88.96;102255.53;4934328;29;20075;-48
2022/07/07 11:02:33;;;;;;;5.43;1.98;;;;;;;17.58;89.00;102256.59;4932601;29;20035;-49
2022/07/07 11:05:04;;;;;;;4.95;1.92;;;;;;;17.64;88.05;102255.50;4919251;29;20056;-51
2022/07/07 11:07:31;;;;;;;8.20;2.20;;;;;;;17.67;87.76;102263.19;4935072;29;20058;-50
2022/07/07 11:10:05;;;;;;;6.80;1.73;;;;;;;17.71;87.92;102266.22;4934987;29;20498;-47
2022/07/07 11:12:44;;;;;;;3.38;1.77;;;;;;;17.72;90.59;102263.16;4939699;29;20043;-46
2022/07/07 11:15:21;;;;;;;7.07;2.17;;;;;;;17.64;92.87;102266.53;4912737;29;20094;-50
2022/07/07 11:17:49;;;;;;;4.65;2.00;;;;;;;17.61;92.34;102276.19;4934523;29;20507;-48
2022/07/07 11:20:22;;;;;;;4.88;1.98;;;;;;;17.66;93.56;102276.16;4934931;29;20051;-46
2022/07/07 11:22:51;;;;;;;7.50;2.58;;;;;;;17.72;94.76;102268.69;4914291;29;20070;-47
2022/07/07 11:25:20;;;;;;;8.95;2.78;;;;;;;17.83;94.93;102286.88;4934114;29;20488;-47
2022/07/07 11:27:49;;;;;;;4.82;2.30;;;;;;;17.87;92.53;102281.63;4917547;29;20051;-51
2022/07/07 11:30:22;;;;;;;8.55;2.60;;;;;;;17.87;93.65;102284.38;4940286;29;20035;-49
2022/07/07 11:32:51;;;;;;;8.10;2.80;;;;;;;17.86;93.83;102293.75;4928563;29;20687;-48
2022/07/07 11:35:18;;;;;;;11.60;2.55;;;;;;;17.78;97.48;102295.16;4935368;29;20498;-49